Time;durP1;ratioP1;P1;durP2;ratioP2;P2;SDS_P1;SDS_P2;PMS_P1;PMS_P2;Temp;Humidity;BMP_temperature;BMP_pressure;BME280_temperature;BME280_humidity;BME280_pressure;Samples;Min_cycle;Max_cycle;Signal;HPM_P1;HPM_P2
2023/09/09 00:00:32;;;;;;;1999.90;999.90;;;;;;;17.97;100.00;94443.19;5007152;28;20219;-49
2023/09/09 00:02:57;;;;;;;1999.90;999.90;;;;;;;17.94;100.00;94444.13;5006867;28;20199;-45
2023/09/09 00:05:22;;;;;;;1999.90;999.90;;;;;;;17.95;100.00;94440.16;5023494;28;20215;-48
2023/09/09 00:07:47;;;;;;;1999.90;999.90;;;;;;;17.97;100.00;94443.19;5006912;28;20196;-46
2023/09/09 00:10:13;;;;;;;1999.90;999.90;;;;;;;17.98;100.00;94434.44;5006835;28;20455;-47
2023/09/09 00:12:38;;;;;;;1999.90;999.90;;;;;;;17.99;100.00;94435.19;5006580;28;20274;-47
2023/09/09 00:15:05;;;;;;;1999.90;999.90;;;;;;;17.97;100.00;94432.13;5023121;28;20215;-45
2023/09/09 00:17:31;;;;;;;1999.90;999.90;;;;;;;17.93;100.00;94420.50;5006454;28;20227;-46
2023/09/09 00:19:56;;;;;;;1999.90;999.90;;;;;;;17.93;100.00;94417.75;5006558;28;20200;-45
2023/09/09 00:22:22;;;;;;;1999.90;999.90;;;;;;;17.89;100.00;94403.34;5006448;28;20204;-48
2023/09/09 00:24:47;;;;;;;1999.90;999.90;;;;;;;17.86;100.00;94396.00;5006704;28;20207;-46
2023/09/09 00:27:12;;;;;;;1999.90;999.90;;;;;;;17.82;100.00;94392.69;5006413;28;20275;-45
2023/09/09 00:29:38;;;;;;;1999.90;999.90;;;;;;;17.81;100.00;94397.44;5006293;28;20187;-48
2023/09/09 00:32:03;;;;;;;1999.90;999.90;;;;;;;17.78;100.00;94397.63;5006679;28;20210;-45
2023/09/09 00:34:29;;;;;;;1999.90;999.90;;;;;;;17.73;100.00;94389.97;5006673;28;20196;-46
2023/09/09 00:36:54;;;;;;;1999.90;999.90;;;;;;;17.73;100.00;94401.03;5006277;28;20199;-45
2023/09/09 00:39:20;;;;;;;1999.90;999.90;;;;;;;17.72;100.00;94394.75;5006349;28;20197;-45
2023/09/09 00:41:45;;;;;;;1999.90;999.90;;;;;;;17.69;100.00;94394.91;5006375;28;20312;-46
2023/09/09 00:44:11;;;;;;;1999.90;999.90;;;;;;;17.68;100.00;94382.34;5005961;28;20223;-48
2023/09/09 00:46:36;;;;;;;1999.90;999.90;;;;;;;17.66;100.00;94365.50;5005856;28;20261;-48
2023/09/09 00:49:03;;;;;;;1999.90;999.90;;;;;;;17.61;100.00;94360.63;5006366;28;20191;-50
2023/09/09 00:51:28;;;;;;;1999.90;999.90;;;;;;;17.59;100.00;94357.59;5005930;28;20199;-45
2023/09/09 00:53:54;;;;;;;1999.90;999.90;;;;;;;17.55;100.00;94351.50;5005777;28;20223;-47
2023/09/09 00:56:19;;;;;;;1999.90;999.90;;;;;;;17.53;100.00;94348.44;5005764;28;20198;-47
2023/09/09 00:58:44;;;;;;;1999.90;999.90;;;;;;;17.52;100.00;94341.41;5006364;28;20211;-45
2023/09/09 01:01:10;;;;;;;1999.90;999.90;;;;;;;17.49;100.00;94339.56;5005652;28;20180;-47
2023/09/09 01:03:35;;;;;;;1999.90;999.90;;;;;;;17.46;100.00;94326.72;5005998;28;20195;-46
2023/09/09 01:06:02;;;;;;;1999.90;999.90;;;;;;;17.46;100.00;94326.72;5021802;28;20212;-47
2023/09/09 01:08:29;;;;;;;1999.90;999.90;;;;;;;17.44;100.00;94320.91;5005991;28;20199;-51
2023/09/09 01:10:55;;;;;;;1999.90;999.90;;;;;;;17.40;100.00;94317.53;5005573;28;20274;-48
2023/09/09 01:13:21;;;;;;;1999.90;999.90;;;;;;;17.38;100.00;94318.03;5005646;28;20235;-51
2023/09/09 01:15:47;;;;;;;1999.90;999.90;;;;;;;17.36;100.00;94316.94;5005608;28;20199;-53
2023/09/09 01:18:12;;;;;;;1999.90;999.90;;;;;;;17.30;100.00;94321.63;5005349;28;20202;-49
2023/09/09 01:20:40;;;;;;;1999.90;999.90;;;;;;;17.26;100.00;94299.69;5005482;28;20214;-52
2023/09/09 01:23:06;;;;;;;1999.90;999.90;;;;;;;17.22;100.00;94309.41;5005434;28;20198;-49
2023/09/09 01:25:32;;;;;;;1999.90;999.90;;;;;;;17.21;100.00;94316.16;5005521;28;20241;-47
2023/09/09 01:27:57;;;;;;;1999.90;999.90;;;;;;;17.20;100.00;94306.34;5005447;28;20204;-49
2023/09/09 01:30:23;;;;;;;1999.90;999.90;;;;;;;17.17;100.00;94310.81;5004996;28;20206;-47
2023/09/09 01:32:48;;;;;;;1999.90;999.90;;;;;;;17.18;100.00;94311.56;5005208;28;20172;-48
2023/09/09 01:35:13;;;;;;;1999.90;999.90;;;;;;;17.16;100.00;94314.81;5005088;28;20196;-47
2023/09/09 01:37:39;;;;;;;1999.90;999.90;;;;;;;17.14;100.00;94316.50;5005004;28;20210;-46
2023/09/09 01:40:11;;;;;;;1999.90;999.90;;;;;;;17.15;100.00;94312.53;5005241;28;20234;-45
2023/09/09 01:42:37;;;;;;;1999.90;999.90;;;;;;;17.14;100.00;94319.28;5005292;28;20200;-48
2023/09/09 01:45:03;;;;;;;1999.90;999.90;;;;;;;17.11;100.00;94312.69;5004568;28;20200;-45
2023/09/09 01:47:29;;;;;;;1999.90;999.90;;;;;;;17.12;100.00;94321.75;5004815;28;20199;-46
2023/09/09 01:49:54;;;;;;;1999.90;999.90;;;;;;;17.09;100.00;94314.41;5004938;28;20191;-46
2023/09/09 01:52:20;;;;;;;1999.90;999.90;;;;;;;17.09;100.00;94322.69;5004942;28;20195;-45
2023/09/09 01:54:45;;;;;;;1999.90;999.90;;;;;;;17.06;100.00;94315.34;5004734;28;20215;-47
2023/09/09 01:57:10;;;;;;;1999.90;999.90;;;;;;;17.06;100.00;94324.41;5005109;28;20206;-45
2023/09/09 01:59:35;;;;;;;1999.90;999.90;;;;;;;17.02;100.00;94325.81;5004442;28;20191;-47
2023/09/09 02:02:02;;;;;;;1999.90;999.90;;;;;;;16.96;100.00;94331.22;5004723;28;20167;-45
2023/09/09 02:04:27;;;;;;;1999.90;999.90;;;;;;;16.92;100.00;94329.84;5004893;28;20241;-45
2023/09/09 02:06:52;;;;;;;1999.90;999.90;;;;;;;16.88;100.00;94343.06;5004881;28;20203;-47
2023/09/09 02:09:18;;;;;;;1999.90;999.90;;;;;;;16.86;100.00;94342.78;5021198;28;20195;-47
2023/09/09 02:11:43;;;;;;;1999.90;999.90;;;;;;;16.85;100.00;94341.22;5004948;28;20226;-49
2023/09/09 02:14:08;;;;;;;1999.90;999.90;;;;;;;16.82;100.00;94339.44;5004695;28;20192;-46
2023/09/09 02:16:34;;;;;;;1999.90;999.90;;;;;;;16.82;100.00;94350.47;5003532;28;20191;-45
2023/09/09 02:18:59;;;;;;;1999.90;999.90;;;;;;;16.83;100.00;94346.47;5004535;28;20295;-46
2023/09/09 02:21:24;;;;;;;1999.90;999.90;;;;;;;16.83;100.00;94350.00;5003994;28;20198;-45
2023/09/09 02:23:50;;;;;;;1999.90;999.90;;;;;;;16.84;100.00;94347.97;5005052;28;20238;-45
2023/09/09 02:26:15;;;;;;;1999.90;999.90;;;;;;;16.82;100.00;94356.72;5004674;28;20231;-45
2023/09/09 02:28:40;;;;;;;1999.90;999.90;;;;;;;16.80;100.00;94358.44;5004644;28;20246;-45
2023/09/09 02:31:06;;;;;;;1999.90;999.90;;;;;;;16.79;100.00;94354.16;5004136;28;20192;-54
2023/09/09 02:33:31;;;;;;;1999.90;999.90;;;;;;;16.77;100.00;94359.34;5004930;28;20179;-45
2023/09/09 02:36:00;;;;;;;1999.90;999.90;;;;;;;16.77;100.00;94359.34;5004719;28;20223;-45
2023/09/09 02:38:26;;;;;;;1999.90;999.90;;;;;;;16.74;100.00;94366.56;5004472;28;20203;-46
2023/09/09 02:40:51;;;;;;;1999.90;999.90;;;;;;;16.73;100.00;94358.78;5004482;28;20276;-47
2023/09/09 02:43:16;;;;;;;1999.90;999.90;;;;;;;16.72;100.00;94362.75;5004143;28;20196;-47
2023/09/09 02:45:42;;;;;;;1999.90;999.90;;;;;;;16.72;100.00;94362.75;5003761;28;20216;-46
2023/09/09 02:48:07;;;;;;;1999.90;999.90;;;;;;;16.71;100.00;94364.00;5004073;28;20191;-46
2023/09/09 02:50:33;;;;;;;1999.90;999.90;;;;;;;16.70;100.00;94365.22;5004110;28;20195;-46
2023/09/09 02:52:59;;;;;;;1999.90;999.90;;;;;;;16.69;100.00;94371.97;5004023;28;20263;-45
2023/09/09 02:55:24;;;;;;;1999.90;999.90;;;;;;;16.64;100.00;94378.13;5004186;28;20210;-50
2023/09/09 02:57:50;;;;;;;1999.90;999.90;;;;;;;16.63;100.00;94376.59;5004062;28;20262;-51
2023/09/09 03:00:15;;;;;;;1999.90;999.90;;;;;;;16.63;100.00;94379.34;5003960;28;20234;-46
2023/09/09 03:02:44;;;;;;;1999.90;999.90;;;;;;;16.63;100.00;94371.06;5003769;28;20192;-50
2023/09/09 03:05:09;;;;;;;1999.90;999.90;;;;;;;16.60;100.00;94372.78;5004272;28;20206;-51
2023/09/09 03:07:35;;;;;;;1999.90;999.90;;;;;;;16.56;100.00;94379.69;5004243;28;20196;-47
2023/09/09 03:10:00;;;;;;;1999.90;999.90;;;;;;;16.50;100.00;94384.31;5004213;28;20204;-47
2023/09/09 03:12:27;;;;;;;1999.90;999.90;;;;;;;16.50;100.00;94395.34;5003975;28;20211;-49
2023/09/09 03:14:52;;;;;;;1999.90;999.90;;;;;;;16.45;100.00;94393.97;5004529;28;20211;-49
2023/09/09 03:17:18;;;;;;;1999.90;999.90;;;;;;;16.42;100.00;94400.41;5003778;28;20270;-48
2023/09/09 03:19:44;;;;;;;1999.90;999.90;;;;;;;16.38;100.00;94397.78;5003723;28;20203;-48
2023/09/09 03:22:09;;;;;;;1999.90;999.90;;;;;;;16.34;100.00;94410.97;5004235;28;20205;-47
2023/09/09 03:24:34;;;;;;;1999.90;999.90;;;;;;;16.35;100.00;94400.69;5003816;28;20208;-45
2023/09/09 03:27:00;;;;;;;1999.90;999.90;;;;;;;16.34;100.00;94399.97;5004040;28;20275;-45
2023/09/09 03:29:25;;;;;;;1999.90;999.90;;;;;;;16.33;100.00;94392.91;5007160;28;20239;-51
2023/09/09 03:31:50;;;;;;;1999.90;999.90;;;;;;;16.35;100.00;94401.47;5007556;28;20192;-46
2023/09/09 03:34:16;;;;;;;1999.90;999.90;;;;;;;16.34;100.00;94397.19;5007002;28;20215;-46
2023/09/09 03:36:42;;;;;;;1999.90;999.90;;;;;;;16.32;100.00;94385.88;5007760;28;20195;-44
2023/09/09 03:39:08;;;;;;;1999.90;999.90;;;;;;;16.30;100.00;94404.09;5007537;28;20242;-45
2023/09/09 03:41:33;;;;;;;1999.90;999.90;;;;;;;16.29;100.00;94403.31;5007429;28;20241;-47
2023/09/09 03:43:58;;;;;;;1999.90;999.90;;;;;;;16.30;100.00;94404.88;5007217;28;20276;-46
2023/09/09 03:46:24;;;;;;;1999.90;999.90;;;;;;;16.29;100.00;94408.84;5007156;28;20222;-48
2023/09/09 03:48:50;;;;;;;1999.90;999.90;;;;;;;16.26;100.00;94409.00;5006975;28;20218;-45
2023/09/09 03:51:15;;;;;;;1999.90;999.90;;;;;;;16.24;100.00;94412.22;5006968;28;20200;-46
2023/09/09 03:53:41;;;;;;;1999.90;999.90;;;;;;;16.25;100.00;94413.75;5007009;28;20239;-51
2023/09/09 03:56:06;;;;;;;1999.90;999.90;;;;;;;16.25;100.00;94410.25;5007287;28;20220;-47
2023/09/09 03:58:32;;;;;;;1999.90;999.90;;;;;;;16.26;100.00;94414.53;5006635;28;20207;-47
2023/09/09 04:01:07;;;;;;;1999.90;999.90;;;;;;;16.22;100.00;94417.41;5006536;28;20196;-48
2023/09/09 04:03:34;;;;;;;1999.90;999.90;;;;;;;16.19;100.00;94426.63;5006686;28;20183;-47
2023/09/09 04:06:08;;;;;;;1999.90;999.90;;;;;;;16.19;100.00;94432.16;5007128;28;20220;-45
2023/09/09 04:08:35;;;;;;;1999.90;999.90;;;;;;;16.17;100.00;94434.59;5007068;28;20207;-46
2023/09/09 04:11:01;;;;;;;1999.90;999.90;;;;;;;16.15;100.00;94431.53;5006724;28;20214;-45
2023/09/09 04:13:26;;;;;;;1999.90;999.90;;;;;;;16.15;100.00;94436.28;5006487;28;20199;-45
2023/09/09 04:16:01;;;;;;;1999.90;999.90;;;;;;;16.11;100.00;94441.94;5006666;28;20282;-46
2023/09/09 04:18:27;;;;;;;1999.90;999.90;;;;;;;16.09;100.00;94444.41;5007084;28;20229;-47
2023/09/09 04:20:52;;;;;;;1999.90;999.90;;;;;;;16.07;100.00;94444.09;5006525;28;20227;-47
2023/09/09 04:23:18;;;;;;;1999.90;999.90;;;;;;;16.05;100.00;94446.56;5006574;28;20199;-52
2023/09/09 04:25:46;;;;;;;1999.90;999.90;;;;;;;16.04;100.00;94447.78;5006280;28;20235;-45
2023/09/09 04:28:13;;;;;;;1999.90;999.90;;;;;;;16.05;100.00;94454.81;5006166;28;20206;-45
2023/09/09 04:30:39;;;;;;;1999.90;999.90;;;;;;;15.98;100.00;94471.66;5006574;28;20247;-47
2023/09/09 04:33:11;;;;;;;1999.90;999.90;;;;;;;15.95;100.00;94469.81;5006612;28;20204;-47
2023/09/09 04:35:40;;;;;;;1999.90;999.90;;;;;;;15.96;100.00;94474.09;5006504;28;20234;-47
2023/09/09 04:38:07;;;;;;;1999.90;999.90;;;;;;;15.98;100.00;94477.16;5006000;28;20259;-49
2023/09/09 04:40:33;;;;;;;1999.90;999.90;;;;;;;15.98;100.00;94476.38;5005528;28;20200;-46
2023/09/09 04:42:58;;;;;;;1999.90;999.90;;;;;;;15.97;100.00;94470.13;5006218;28;20192;-47
2023/09/09 04:45:24;;;;;;;1999.90;999.90;;;;;;;15.97;100.00;94470.13;5006125;28;20211;-47
2023/09/09 04:47:51;;;;;;;1999.90;999.90;;;;;;;15.96;100.00;94473.34;5006052;28;20223;-46
2023/09/09 04:50:17;;;;;;;1999.90;999.90;;;;;;;15.95;100.00;94477.31;5005843;28;20254;-46
2023/09/09 04:52:43;;;;;;;1999.90;999.90;;;;;;;15.97;100.00;94481.16;5005926;28;20230;-46
2023/09/09 04:55:08;;;;;;;1999.90;999.90;;;;;;;16.02;100.00;94486.03;5005939;28;20196;-49
2023/09/09 04:57:33;;;;;;;1999.90;999.90;;;;;;;16.09;100.00;94493.22;5006018;28;20210;-45
2023/09/09 04:59:59;;;;;;;1999.90;999.90;;;;;;;16.18;100.00;94493.97;5005573;28;20222;-46
2023/09/09 05:02:24;;;;;;;1999.90;999.90;;;;;;;16.32;100.00;94496.09;5005503;28;20279;-48
2023/09/09 05:04:50;;;;;;;1999.90;999.90;;;;;;;16.53;100.00;94510.19;5005561;28;20211;-47
2023/09/09 05:07:17;;;;;;;1999.90;999.90;;;;;;;16.71;100.00;94537.72;5005786;28;20235;-47
2023/09/09 05:09:42;;;;;;;1999.90;999.90;;;;;;;16.95;100.00;94568.91;5005281;28;20230;-47
2023/09/09 05:12:07;;;;;;;1999.90;999.90;;;;;;;17.18;100.00;94628.91;5005358;28;20191;-46
2023/09/09 05:14:33;;;;;;;1999.90;999.90;;;;;;;17.40;100.00;94709.50;5005546;28;20191;-47
2023/09/09 05:16:58;;;;;;;1999.90;999.90;;;;;;;17.66;100.00;94793.59;5005335;28;20187;-45
2023/09/09 05:19:23;;;;;;;1999.90;999.90;;;;;;;18.05;100.00;94880.97;5005306;28;20198;-45
2023/09/09 05:21:49;;;;;;;1999.90;999.90;;;;;;;18.36;100.00;94986.63;5005195;28;20199;-46
2023/09/09 05:24:15;;;;;;;1999.90;999.90;;;;;;;18.59;100.00;95077.25;5005532;28;20192;-47
2023/09/09 05:26:40;;;;;;;1999.90;999.90;;;;;;;19.03;100.00;95155.91;5005404;28;20218;-50
2023/09/09 05:29:05;;;;;;;1999.90;999.90;;;;;;;19.33;100.00;95243.59;5005883;28;20207;-49
2023/09/09 05:31:31;;;;;;;1999.90;999.90;;;;;;;19.71;100.00;95299.28;5005491;28;20199;-49
2023/09/09 05:33:56;;;;;;;1999.90;999.90;;;;;;;19.94;100.00;95344.97;5005347;28;20218;-51
2023/09/09 05:36:21;;;;;;;1999.90;999.90;;;;;;;20.34;100.00;95382.34;5005131;28;20234;-46
2023/09/09 05:38:47;;;;;;;1999.90;999.90;;;;;;;20.63;100.00;95404.78;5004796;28;20194;-51
2023/09/09 05:41:13;;;;;;;1999.90;999.90;;;;;;;20.91;100.00;95420.06;5004892;28;20195;-45
2023/09/09 05:43:38;;;;;;;1999.90;999.90;;;;;;;21.29;100.00;95450.78;5005576;28;20199;-45
2023/09/09 05:46:04;;;;;;;1999.90;999.90;;;;;;;21.30;100.00;95463.44;5004949;28;20278;-46
2023/09/09 05:48:29;;;;;;;1999.90;999.90;;;;;;;21.57;100.00;95470.88;5004910;28;20192;-46
2023/09/09 05:50:55;;;;;;;1999.90;999.90;;;;;;;22.08;100.00;95483.34;5004694;28;20263;-46
2023/09/09 05:53:21;;;;;;;1999.90;999.90;;;;;;;22.56;100.00;95499.97;5004683;28;20187;-47
2023/09/09 05:55:47;;;;;;;1999.90;999.90;;;;;;;22.90;100.00;95504.91;5004645;28;20323;-49
2023/09/09 05:58:12;;;;;;;1999.90;999.90;;;;;;;23.32;100.00;95505.38;5004501;28;20220;-48
2023/09/09 06:00:38;;;;;;;1999.90;999.90;;;;;;;23.57;100.00;95513.13;5004332;28;20195;-52
2023/09/09 06:03:03;;;;;;;1999.90;999.90;;;;;;;23.84;100.00;95518.31;5004929;28;20204;-49
2023/09/09 06:05:28;;;;;;;1999.90;999.90;;;;;;;24.43;100.00;95525.19;5004345;28;20261;-48
2023/09/09 06:07:56;;;;;;;1999.90;999.90;;;;;;;24.86;100.00;95524.19;5004506;28;20207;-46
2023/09/09 06:10:21;;;;;;;1999.90;999.90;;;;;;;25.40;100.00;95517.56;5004701;28;20199;-50
2023/09/09 06:12:47;;;;;;;1999.90;999.90;;;;;;;25.39;100.00;95513.25;5004343;28;20271;-49
2023/09/09 06:15:12;;;;;;;1999.90;999.90;;;;;;;26.39;100.00;95512.59;5020675;28;20234;-49
2023/09/09 06:17:39;;;;;;;1999.90;999.90;;;;;;;26.65;100.00;95513.22;5005081;28;20200;-50
2023/09/09 06:20:06;;;;;;;1999.90;999.90;;;;;;;27.14;100.00;95514.56;5004312;28;20195;-50
2023/09/09 06:22:32;;;;;;;1999.90;999.90;;;;;;;27.60;100.00;95501.59;5004177;28;20196;-47
2023/09/09 06:24:57;;;;;;;1999.90;999.90;;;;;;;28.29;100.00;95510.91;5004812;28;20215;-47
2023/09/09 06:27:23;;;;;;;1999.90;999.90;;;;;;;28.53;100.00;95516.72;5004099;28;20203;-48
2023/09/09 06:29:48;;;;;;;1999.90;999.90;;;;;;;28.33;100.00;95522.63;5004173;28;20164;-45
2023/09/09 06:32:13;;;;;;;1999.90;999.90;;;;;;;28.99;100.00;95522.34;5004657;28;20206;-46
2023/09/09 06:34:39;;;;;;;1999.90;999.90;;;;;;;29.01;100.00;95524.63;5004616;28;20196;-48
2023/09/09 06:37:04;;;;;;;1999.90;999.90;;;;;;;29.34;100.00;95521.63;5004525;28;20266;-47
2023/09/09 06:39:29;;;;;;;1999.90;999.90;;;;;;;29.45;100.00;95525.13;5004308;28;20215;-57
2023/09/09 06:41:55;;;;;;;1999.90;999.90;;;;;;;29.64;100.00;95525.25;5004070;28;20192;-57
2023/09/09 06:44:20;;;;;;;1999.90;999.90;;;;;;;30.67;100.00;95519.03;5003998;28;20351;-59
2023/09/09 06:46:45;;;;;;;1999.90;999.90;;;;;;;31.20;100.00;95526.53;5020480;28;20218;-47
2023/09/09 06:49:11;;;;;;;1999.90;999.90;;;;;;;30.63;100.00;95529.88;5004097;28;20202;-48
2023/09/09 06:51:36;;;;;;;1999.90;999.90;;;;;;;30.56;100.00;95519.19;5004111;28;20263;-46
2023/09/09 06:54:02;;;;;;;1999.90;999.90;;;;;;;30.64;100.00;95526.50;5004150;28;20191;-46
2023/09/09 06:56:28;;;;;;;1999.90;999.90;;;;;;;31.04;100.00;95530.38;5004099;28;20188;-53
2023/09/09 06:58:53;;;;;;;1999.90;999.90;;;;;;;31.48;100.00;95529.72;5003736;28;20208;-45
2023/09/09 07:01:18;;;;;;;1999.90;999.90;;;;;;;31.57;100.00;95532.13;5003989;28;20168;-46
2023/09/09 07:03:44;;;;;;;1999.90;999.90;;;;;;;32.02;100.00;95527.28;5006460;28;20274;-47
2023/09/09 07:06:09;;;;;;;1999.90;999.90;;;;;;;32.09;100.00;95537.97;5008292;28;20215;-48
2023/09/09 07:08:39;;;;;;;1999.90;999.90;;;;;;;32.97;100.00;95541.91;5007892;28;20275;-46
2023/09/09 07:11:04;;;;;;;1999.90;999.90;;;;;;;33.83;100.00;95536.81;5008064;28;20195;-46
2023/09/09 07:13:30;;;;;;;1999.90;999.90;;;;;;;34.09;100.00;95544.44;5007691;28;20290;-49
2023/09/09 07:15:55;;;;;;;1999.90;999.90;;;;;;;33.87;100.00;95544.22;5008005;28;20196;-49
2023/09/09 07:18:21;;;;;;;1999.90;999.90;;;;;;;33.32;100.00;95543.44;5007555;28;20220;-47
2023/09/09 07:20:46;;;;;;;1999.90;999.90;;;;;;;33.78;100.00;95546.22;5007756;28;20191;-48
2023/09/09 07:23:16;;;;;;;1999.90;999.90;;;;;;;33.38;100.00;95542.03;5007564;28;20257;-46
2023/09/09 07:25:42;;;;;;;1999.90;999.90;;;;;;;33.31;100.00;95536.25;5007432;28;20231;-51
2023/09/09 07:28:08;;;;;;;1999.90;999.90;;;;;;;33.07;100.00;95534.47;5007463;28;20246;-51
2023/09/09 07:30:33;;;;;;;1999.90;999.90;;;;;;;33.38;100.00;95527.88;5007517;28;20175;-52
2023/09/09 07:32:59;;;;;;;1999.90;999.90;;;;;;;32.68;100.00;95530.91;5007284;28;20246;-46
2023/09/09 07:35:24;;;;;;;1999.90;999.90;;;;;;;33.10;100.00;95538.28;5007556;28;20196;-47
2023/09/09 07:37:50;;;;;;;1999.90;999.90;;;;;;;33.54;100.00;95532.38;5007362;28;20192;-48
2023/09/09 07:40:16;;;;;;;1999.90;999.90;;;;;;;33.61;100.00;95536.59;5007262;28;20196;-46
2023/09/09 07:42:42;;;;;;;1999.90;999.90;;;;;;;34.05;100.00;95529.06;5007477;28;20226;-52
2023/09/09 07:45:07;;;;;;;1999.90;999.90;;;;;;;34.43;100.00;95538.63;5007065;28;20199;-52
2023/09/09 07:47:32;;;;;;;1999.90;999.90;;;;;;;33.94;100.00;95535.03;5007205;28;20263;-48
2023/09/09 07:49:58;;;;;;;1999.90;999.90;;;;;;;34.23;100.00;95539.44;5023485;28;20195;-47
2023/09/09 07:52:23;;;;;;;1999.90;999.90;;;;;;;34.44;100.00;95548.69;5007005;28;20263;-47
2023/09/09 07:54:49;;;;;;;1999.90;999.90;;;;;;;34.84;100.00;95541.38;5006703;28;20195;-47
2023/09/09 07:57:14;;;;;;;1999.90;999.90;;;;;;;35.18;100.00;95539.06;5006722;28;20203;-52
2023/09/09 07:59:40;;;;;;;1999.90;999.90;;;;;;;34.97;100.00;95544.09;5006921;28;20210;-51
2023/09/09 08:02:05;;;;;;;1999.90;999.90;;;;;;;35.09;100.00;95539.59;5007254;28;20172;-46
2023/09/09 08:04:31;;;;;;;1999.90;999.90;;;;;;;35.59;100.00;95538.81;5007095;28;20200;-47
2023/09/09 08:06:56;;;;;;;1999.90;999.90;;;;;;;35.63;100.00;95542.06;5006703;28;20246;-49
2023/09/09 08:09:22;;;;;;;1999.90;999.90;;;;;;;35.88;100.00;95541.00;5006635;28;20231;-49
2023/09/09 08:11:47;;;;;;;1999.90;999.90;;;;;;;35.82;100.00;95542.50;5006833;28;20200;-48
2023/09/09 08:14:13;;;;;;;1999.90;999.90;;;;;;;35.98;100.00;95546.88;5006046;28;20203;-47
2023/09/09 08:16:40;;;;;;;1999.90;999.90;;;;;;;36.41;96.72;95535.28;5006783;28;20199;-46
2023/09/09 08:19:05;;;;;;;1999.90;999.90;;;;;;;36.84;92.73;95543.59;5006320;28;20200;-59
2023/09/09 08:21:31;;;;;;;1999.90;999.90;;;;;;;37.05;88.02;95540.47;5006415;28;20206;-60
2023/09/09 08:24:00;;;;;;;1999.90;999.90;;;;;;;36.88;92.17;95543.22;5022680;28;20199;-58
2023/09/09 08:26:26;;;;;;;1999.90;999.90;;;;;;;36.13;96.04;95544.03;5022571;28;20250;-59
2023/09/09 08:28:51;;;;;;;1999.90;999.90;;;;;;;36.47;96.09;95555.81;5006487;28;20218;-58
2023/09/09 08:31:17;;;;;;;1999.90;999.90;;;;;;;36.99;91.47;95546.41;5006065;28;20270;-58
2023/09/09 08:33:42;;;;;;;1999.90;999.90;;;;;;;36.81;95.25;95544.75;5006174;28;20172;-60
2023/09/09 08:36:07;;;;;;;1999.90;999.90;;;;;;;36.39;94.40;95543.66;5006399;28;20222;-58
2023/09/09 08:38:33;;;;;;;1999.90;999.90;;;;;;;35.99;100.00;95551.22;5006585;28;20199;-59
2023/09/09 08:41:15;;;;;;;1999.90;999.90;;;;;;;36.25;97.69;95540.28;5006262;28;20218;-58
2023/09/09 08:44:08;;;;;;;1999.90;999.90;;;;;;;37.17;92.10;95548.06;5006056;28;20206;-58
2023/09/09 08:46:33;;;;;;;1999.90;999.90;;;;;;;37.29;88.59;95546.31;5006295;28;20215;-59
2023/09/09 08:49:04;;;;;;;1999.90;999.90;;;;;;;36.73;94.47;95544.00;5006054;28;20206;-58
2023/09/09 08:51:42;;;;;;;1999.90;999.90;;;;;;;37.31;88.78;95543.63;5005740;28;20218;-59
2023/09/09 08:54:10;;;;;;;1999.90;999.90;;;;;;;37.35;86.98;95546.84;5005684;28;20202;-59
2023/09/09 08:56:36;;;;;;;1999.90;999.90;;;;;;;37.17;88.98;95553.75;5005975;28;20218;-58
2023/09/09 08:59:02;;;;;;;1999.90;999.90;;;;;;;36.66;92.47;95550.44;5005799;28;20267;-58
2023/09/09 09:01:28;;;;;;;1999.90;999.90;;;;;;;36.57;93.94;95553.91;5005619;28;20200;-58
2023/09/09 09:03:54;;;;;;;1999.90;999.90;;;;;;;36.50;96.09;95552.59;5006040;28;20191;-58
2023/09/09 09:06:20;;;;;;;1999.90;999.90;;;;;;;36.70;90.81;95552.94;5005437;28;20203;-58
2023/09/09 09:08:45;;;;;;;1999.90;999.90;;;;;;;36.89;88.99;95556.13;5006017;28;20230;-59
2023/09/09 09:11:12;;;;;;;1999.90;999.90;;;;;;;36.70;89.83;95550.06;5005395;28;20226;-58
2023/09/09 09:13:37;;;;;;;1999.90;999.90;;;;;;;36.87;87.56;95555.94;5005279;28;20195;-58
2023/09/09 09:16:03;;;;;;;1999.90;999.90;;;;;;;36.70;89.54;95556.53;5005399;28;20254;-59
2023/09/09 09:18:29;;;;;;;1999.90;999.90;;;;;;;36.82;87.45;95549.13;5005437;28;20274;-58
2023/09/09 09:21:05;;;;;;;1999.90;999.90;;;;;;;36.20;90.86;95548.97;5005668;28;20191;-58
2023/09/09 09:23:31;;;;;;;1999.90;999.90;;;;;;;36.51;90.26;95544.78;5005643;28;20199;-58
2023/09/09 09:25:56;;;;;;;1999.90;999.90;;;;;;;36.80;88.53;95543.22;5004827;28;20218;-58
2023/09/09 09:28:27;;;;;;;1999.90;999.90;;;;;;;36.00;93.06;95547.06;5005417;28;20198;-58
2023/09/09 09:30:53;;;;;;;1999.90;999.90;;;;;;;36.52;90.37;95538.50;5005316;28;20199;-58
2023/09/09 09:33:24;;;;;;;1999.90;999.90;;;;;;;36.87;91.87;95548.16;5021418;28;20201;-58
2023/09/09 09:35:49;;;;;;;1999.90;999.90;;;;;;;37.08;88.24;95540.09;5005285;28;20275;-58
2023/09/09 09:38:15;;;;;;;1999.90;999.90;;;;;;;36.80;88.86;95543.22;5005045;28;20187;-58
2023/09/09 09:40:40;;;;;;;1999.90;999.90;;;;;;;36.85;87.90;95533.72;5004961;28;20206;-58
2023/09/09 09:43:20;;;;;;;1999.90;999.90;;;;;;;36.41;87.62;95541.75;5005349;28;20192;-58
2023/09/09 09:45:45;;;;;;;1999.90;999.90;;;;;;;36.70;90.58;95530.91;5004868;28;20229;-58
2023/09/09 09:48:24;;;;;;;1999.90;999.90;;;;;;;36.73;85.86;95538.31;5005305;28;20200;-58
2023/09/09 09:50:52;;;;;;;1999.90;999.90;;;;;;;36.37;92.11;95529.22;5004812;28;20200;-58
2023/09/09 09:53:17;;;;;;;1999.90;999.90;;;;;;;36.23;90.60;95530.75;5004666;28;20266;-58
2023/09/09 09:55:43;;;;;;;1999.90;999.90;;;;;;;35.67;92.76;95536.75;5004507;28;20218;-58
2023/09/09 09:58:12;;;;;;;1999.90;999.90;;;;;;;34.69;100.00;95538.41;5004968;28;20214;-58
2023/09/09 10:00:38;;;;;;;1999.90;999.90;;;;;;;35.50;99.14;95528.00;5004522;28;20196;-58
2023/09/09 10:03:05;;;;;;;1999.90;999.90;;;;;;;35.88;94.75;95529.63;5004817;28;20195;-58
2023/09/09 10:05:33;;;;;;;1999.90;999.90;;;;;;;35.45;98.14;95531.78;5004151;28;20212;-58
2023/09/09 10:08:04;;;;;;;1999.90;999.90;;;;;;;34.95;100.00;95532.53;5004348;28;20215;-58
2023/09/09 10:10:31;;;;;;;1999.90;999.90;;;;;;;34.90;100.00;95527.75;5021269;28;20175;-58
2023/09/09 10:13:00;;;;;;;1999.90;999.90;;;;;;;35.29;99.65;95530.19;5004792;28;20226;-58
2023/09/09 10:15:25;;;;;;;1999.90;999.90;;;;;;;35.38;98.73;95527.59;5021064;28;20298;-58
2023/09/09 10:17:52;;;;;;;1999.90;999.90;;;;;;;35.89;94.43;95527.50;5004635;28;20192;-58
2023/09/09 10:20:18;;;;;;;1999.90;999.90;;;;;;;35.59;95.79;95521.78;5004136;28;20202;-58
2023/09/09 10:22:45;;;;;;;1999.90;999.90;;;;;;;33.97;100.00;95522.59;5004266;28;20218;-58
2023/09/09 10:25:11;;;;;;;1999.90;999.90;;;;;;;36.02;95.92;95521.66;5004300;28;20218;-58
2023/09/09 10:27:39;;;;;;;1999.90;999.90;;;;;;;36.23;92.66;95525.06;5004603;28;20191;-59
2023/09/09 10:30:08;;;;;;;1999.90;999.90;;;;;;;36.33;93.94;95523.16;5004387;28;20191;-59
2023/09/09 10:32:35;;;;;;;1999.90;999.90;;;;;;;36.26;93.24;95518.25;5004274;28;20267;-59
2023/09/09 10:35:05;;;;;;;1999.90;999.90;;;;;;;35.02;100.00;95517.59;5003865;28;20191;-58
2023/09/09 10:37:33;;;;;;;1999.90;999.90;;;;;;;33.85;100.00;95516.44;5003669;28;20171;-58
2023/09/09 10:39:59;;;;;;;1999.90;999.90;;;;;;;33.26;100.00;95517.31;5004342;28;20210;-58
2023/09/09 10:42:25;;;;;;;1999.90;999.90;;;;;;;33.35;100.00;95514.78;5004327;28;20234;-60